sensor_id;sensor_type;location;lat;lon;timestamp;P1;durP1;ratioP1;P2;durP2;ratioP2
22606;SDS011;11470;20.968;105.834;2022-09-01T00:01:36;65.30;;;40.33;;
22606;SDS011;11470;20.968;105.834;2022-09-01T00:06:45;65.05;;;40.58;;
22606;SDS011;11470;20.968;105.834;2022-09-01T00:11:52;64.90;;;40.65;;
22606;SDS011;11470;20.968;105.834;2022-09-01T00:16:59;56.35;;;33.78;;
22606;SDS011;11470;20.968;105.834;2022-09-01T00:22:07;57.58;;;37.40;;
22606;SDS011;11470;20.968;105.834;2022-09-01T00:27:13;22.35;;;14.70;;
22606;SDS011;11470;20.968;105.834;2022-09-01T00:32:19;27.27;;;18.60;;
22606;SDS011;11470;20.968;105.834;2022-09-01T00:37:25;24.52;;;17.15;;
22606;SDS011;11470;20.968;105.834;2022-09-01T00:42:30;21.58;;;13.85;;
22606;SDS011;11470;20.968;105.834;2022-09-01T00:52:45;15.40;;;10.93;;
22606;SDS011;11470;20.968;105.834;2022-09-01T00:57:55;14.80;;;9.02;;
22606;SDS011;11470;20.968;105.834;2022-09-01T01:03:03;17.00;;;11.20;;
22606;SDS011;11470;20.968;105.834;2022-09-01T01:08:09;14.50;;;11.68;;
22606;SDS011;11470;20.968;105.834;2022-09-01T01:13:15;13.43;;;11.65;;
22606;SDS011;11470;20.968;105.834;2022-09-01T01:18:21;18.25;;;13.43;;
22606;SDS011;11470;20.968;105.834;2022-09-01T01:28:40;16.20;;;10.07;;
22606;SDS011;11470;20.968;105.834;2022-09-01T01:33:50;11.50;;;6.68;;
22606;SDS011;11470;20.968;105.834;2022-09-01T01:39:04;18.23;;;12.82;;
22606;SDS011;11470;20.968;105.834;2022-09-01T01:44:13;16.90;;;13.48;;
22606;SDS011;11470;20.968;105.834;2022-09-01T01:49:22;15.93;;;11.52;;
22606;SDS011;11470;20.968;105.834;2022-09-01T01:54:31;13.00;;;9.50;;
22606;SDS011;11470;20.968;105.834;2022-09-01T01:59:38;12.13;;;9.32;;
22606;SDS011;11470;20.968;105.834;2022-09-01T02:09:49;12.88;;;7.68;;
22606;SDS011;11470;20.968;105.834;2022-09-01T02:14:55;10.18;;;7.53;;
22606;SDS011;11470;20.968;105.834;2022-09-01T02:20:03;14.73;;;6.85;;
22606;SDS011;11470;20.968;105.834;2022-09-01T02:25:10;10.70;;;6.65;;
22606;SDS011;11470;20.968;105.834;2022-09-01T02:30:20;17.90;;;11.77;;
22606;SDS011;11470;20.968;105.834;2022-09-01T02:35:26;18.55;;;13.88;;
22606;SDS011;11470;20.968;105.834;2022-09-01T02:40:37;22.27;;;14.82;;
22606;SDS011;11470;20.968;105.834;2022-09-01T02:45:43;18.20;;;13.40;;
22606;SDS011;11470;20.968;105.834;2022-09-01T02:50:59;17.73;;;13.73;;
22606;SDS011;11470;20.968;105.834;2022-09-01T02:56:06;18.67;;;14.02;;
22606;SDS011;11470;20.968;105.834;2022-09-01T03:01:18;21.85;;;15.20;;
22606;SDS011;11470;20.968;105.834;2022-09-01T03:06:28;19.70;;;15.90;;
22606;SDS011;11470;20.968;105.834;2022-09-01T03:11:38;17.75;;;14.15;;
22606;SDS011;11470;20.968;105.834;2022-09-01T03:16:45;20.63;;;14.73;;
22606;SDS011;11470;20.968;105.834;2022-09-01T03:21:51;23.85;;;17.70;;
22606;SDS011;11470;20.968;105.834;2022-09-01T03:27:07;18.37;;;12.83;;
22606;SDS011;11470;20.968;105.834;2022-09-01T03:32:14;28.95;;;18.83;;
22606;SDS011;11470;20.968;105.834;2022-09-01T03:37:20;22.17;;;14.13;;
22606;SDS011;11470;20.968;105.834;2022-09-01T03:42:28;20.23;;;14.73;;
22606;SDS011;11470;20.968;105.834;2022-09-01T03:47:35;25.70;;;19.10;;
22606;SDS011;11470;20.968;105.834;2022-09-01T03:52:43;24.30;;;17.65;;
22606;SDS011;11470;20.968;105.834;2022-09-01T03:57:49;21.83;;;15.85;;
22606;SDS011;11470;20.968;105.834;2022-09-01T04:02:57;22.75;;;17.30;;
22606;SDS011;11470;20.968;105.834;2022-09-01T04:08:06;24.23;;;17.17;;
22606;SDS011;11470;20.968;105.834;2022-09-01T04:13:25;25.27;;;20.02;;
22606;SDS011;11470;20.968;105.834;2022-09-01T04:18:35;22.67;;;16.27;;
22606;SDS011;11470;20.968;105.834;2022-09-01T04:23:42;29.55;;;20.50;;
22606;SDS011;11470;20.968;105.834;2022-09-01T04:28:49;31.63;;;23.52;;
22606;SDS011;11470;20.968;105.834;2022-09-01T04:33:54;23.70;;;19.30;;
22606;SDS011;11470;20.968;105.834;2022-09-01T04:39:02;29.95;;;22.42;;
22606;SDS011;11470;20.968;105.834;2022-09-01T04:44:14;24.65;;;18.48;;
22606;SDS011;11470;20.968;105.834;2022-09-01T04:49:21;25.35;;;16.27;;
22606;SDS011;11470;20.968;105.834;2022-09-01T04:54:29;26.00;;;19.35;;
22606;SDS011;11470;20.968;105.834;2022-09-01T04:59:36;15.05;;;9.13;;
22606;SDS011;11470;20.968;105.834;2022-09-01T05:04:44;24.20;;;18.00;;
22606;SDS011;11470;20.968;105.834;2022-09-01T05:09:50;18.85;;;13.20;;
22606;SDS011;11470;20.968;105.834;2022-09-01T05:15:18;23.13;;;16.70;;
22606;SDS011;11470;20.968;105.834;2022-09-01T05:20:24;18.33;;;13.23;;
22606;SDS011;11470;20.968;105.834;2022-09-01T05:25:37;18.30;;;13.95;;
22606;SDS011;11470;20.968;105.834;2022-09-01T05:30:46;20.63;;;15.30;;
22606;SDS011;11470;20.968;105.834;2022-09-01T05:35:54;18.50;;;14.77;;
22606;SDS011;11470;20.968;105.834;2022-09-01T05:41:03;17.45;;;14.27;;
22606;SDS011;11470;20.968;105.834;2022-09-01T05:46:12;17.23;;;12.98;;
22606;SDS011;11470;20.968;105.834;2022-09-01T05:51:21;17.52;;;14.13;;
22606;SDS011;11470;20.968;105.834;2022-09-01T05:56:48;17.10;;;11.35;;
22606;SDS011;11470;20.968;105.834;2022-09-01T06:02:00;16.15;;;9.75;;
22606;SDS011;11470;20.968;105.834;2022-09-01T06:07:07;17.92;;;9.40;;
22606;SDS011;11470;20.968;105.834;2022-09-01T06:12:23;17.13;;;13.05;;
22606;SDS011;11470;20.968;105.834;2022-09-01T06:17:30;18.23;;;9.45;;
22606;SDS011;11470;20.968;105.834;2022-09-01T06:22:39;25.15;;;18.48;;
22606;SDS011;11470;20.968;105.834;2022-09-01T06:27:46;13.80;;;8.75;;
22606;SDS011;11470;20.968;105.834;2022-09-01T06:32:52;18.13;;;10.20;;
22606;SDS011;11470;20.968;105.834;2022-09-01T06:37:58;19.70;;;14.45;;
22606;SDS011;11470;20.968;105.834;2022-09-01T06:43:16;20.73;;;11.40;;
22606;SDS011;11470;20.968;105.834;2022-09-01T06:48:24;22.58;;;16.50;;
22606;SDS011;11470;20.968;105.834;2022-09-01T06:53:37;22.23;;;15.73;;
22606;SDS011;11470;20.968;105.834;2022-09-01T06:58:47;18.88;;;15.88;;
22606;SDS011;11470;20.968;105.834;2022-09-01T07:03:56;20.15;;;16.05;;
22606;SDS011;11470;20.968;105.834;2022-09-01T07:14:59;18.15;;;13.95;;
22606;SDS011;11470;20.968;105.834;2022-09-01T07:20:26;15.95;;;12.52;;
22606;SDS011;11470;20.968;105.834;2022-09-01T07:25:34;15.40;;;12.02;;
22606;SDS011;11470;20.968;105.834;2022-09-01T07:36:41;14.98;;;11.63;;
22606;SDS011;11470;20.968;105.834;2022-09-01T07:42:10;12.30;;;11.00;;
22606;SDS011;11470;20.968;105.834;2022-09-01T07:48:11;18.15;;;13.07;;
22606;SDS011;11470;20.968;105.834;2022-09-01T07:53:37;13.27;;;9.93;;
22606;SDS011;11470;20.968;105.834;2022-09-01T07:58:48;15.25;;;11.90;;
22606;SDS011;11470;20.968;105.834;2022-09-01T08:03:58;13.27;;;11.40;;
22606;SDS011;11470;20.968;105.834;2022-09-01T08:09:05;11.50;;;9.07;;
22606;SDS011;11470;20.968;105.834;2022-09-01T08:14:31;13.95;;;11.95;;
22606;SDS011;11470;20.968;105.834;2022-09-01T08:19:38;15.57;;;11.55;;
22606;SDS011;11470;20.968;105.834;2022-09-01T08:30:17;12.05;;;8.48;;
22606;SDS011;11470;20.968;105.834;2022-09-01T08:35:23;9.30;;;6.47;;
22606;SDS011;11470;20.968;105.834;2022-09-01T08:40:32;11.68;;;9.77;;
22606;SDS011;11470;20.968;105.834;2022-09-01T08:56:37;15.88;;;9.88;;
22606;SDS011;11470;20.968;105.834;2022-09-01T09:01:52;12.95;;;11.38;;
22606;SDS011;11470;20.968;105.834;2022-09-01T09:07:17;11.60;;;10.38;;
22606;SDS011;11470;20.968;105.834;2022-09-01T09:23:42;13.43;;;10.32;;
22606;SDS011;11470;20.968;105.834;2022-09-01T09:28:52;14.40;;;9.68;;
22606;SDS011;11470;20.968;105.834;2022-09-01T09:33:58;14.05;;;9.88;;
22606;SDS011;11470;20.968;105.834;2022-09-01T09:39:13;13.60;;;10.60;;
22606;SDS011;11470;20.968;105.834;2022-09-01T09:44:25;16.13;;;11.70;;
22606;SDS011;11470;20.968;105.834;2022-09-01T09:49:55;14.95;;;11.30;;
22606;SDS011;11470;20.968;105.834;2022-09-01T09:55:35;15.45;;;11.68;;
22606;SDS011;11470;20.968;105.834;2022-09-01T10:00:58;15.27;;;11.23;;
22606;SDS011;11470;20.968;105.834;2022-09-01T10:06:11;13.07;;;10.18;;
22606;SDS011;11470;20.968;105.834;2022-09-01T10:11:39;15.70;;;12.30;;
22606;SDS011;11470;20.968;105.834;2022-09-01T10:16:47;17.58;;;11.35;;
22606;SDS011;11470;20.968;105.834;2022-09-01T10:21:58;12.70;;;9.32;;
22606;SDS011;11470;20.968;105.834;2022-09-01T10:27:12;10.52;;;6.57;;
22606;SDS011;11470;20.968;105.834;2022-09-01T10:32:32;13.45;;;10.65;;
22606;SDS011;11470;20.968;105.834;2022-09-01T10:37:54;13.75;;;11.05;;
22606;SDS011;11470;20.968;105.834;2022-09-01T10:48:48;17.23;;;12.68;;
22606;SDS011;11470;20.968;105.834;2022-09-01T10:53:57;15.65;;;11.38;;
22606;SDS011;11470;20.968;105.834;2022-09-01T11:09:45;23.40;;;18.63;;
22606;SDS011;11470;20.968;105.834;2022-09-01T11:15:33;16.02;;;13.73;;
22606;SDS011;11470;20.968;105.834;2022-09-01T11:20:46;21.77;;;17.50;;
22606;SDS011;11470;20.968;105.834;2022-09-01T11:26:00;20.33;;;14.30;;
22606;SDS011;11470;20.968;105.834;2022-09-01T11:31:27;17.95;;;12.05;;
22606;SDS011;11470;20.968;105.834;2022-09-01T11:36:51;20.25;;;16.63;;
22606;SDS011;11470;20.968;105.834;2022-09-01T11:42:04;33.72;;;25.20;;
22606;SDS011;11470;20.968;105.834;2022-09-01T11:52:40;28.92;;;21.65;;
22606;SDS011;11470;20.968;105.834;2022-09-01T11:57:46;22.88;;;17.65;;
22606;SDS011;11470;20.968;105.834;2022-09-01T12:03:21;24.73;;;16.60;;
22606;SDS011;11470;20.968;105.834;2022-09-01T12:08:33;23.05;;;16.35;;
22606;SDS011;11470;20.968;105.834;2022-09-01T12:13:55;25.80;;;17.95;;
22606;SDS011;11470;20.968;105.834;2022-09-01T12:19:25;31.80;;;20.35;;
22606;SDS011;11470;20.968;105.834;2022-09-01T12:24:34;24.85;;;18.77;;
22606;SDS011;11470;20.968;105.834;2022-09-01T12:29:40;23.27;;;19.20;;
22606;SDS011;11470;20.968;105.834;2022-09-01T12:34:56;28.55;;;20.23;;
22606;SDS011;11470;20.968;105.834;2022-09-01T12:40:29;24.50;;;17.80;;
22606;SDS011;11470;20.968;105.834;2022-09-01T12:50:47;24.48;;;18.77;;
22606;SDS011;11470;20.968;105.834;2022-09-01T12:55:55;18.13;;;13.77;;
22606;SDS011;11470;20.968;105.834;2022-09-01T13:01:05;20.35;;;15.63;;
22606;SDS011;11470;20.968;105.834;2022-09-01T13:06:20;15.40;;;11.98;;
22606;SDS011;11470;20.968;105.834;2022-09-01T13:11:25;19.90;;;14.88;;
22606;SDS011;11470;20.968;105.834;2022-09-01T13:16:51;20.33;;;14.70;;
22606;SDS011;11470;20.968;105.834;2022-09-01T13:21:57;21.27;;;13.65;;
22606;SDS011;11470;20.968;105.834;2022-09-01T13:27:03;17.33;;;15.13;;
22606;SDS011;11470;20.968;105.834;2022-09-01T13:32:24;19.25;;;13.43;;
22606;SDS011;11470;20.968;105.834;2022-09-01T13:37:30;19.55;;;13.60;;
22606;SDS011;11470;20.968;105.834;2022-09-01T13:47:41;17.00;;;13.50;;
22606;SDS011;11470;20.968;105.834;2022-09-01T13:53:08;16.05;;;11.85;;
22606;SDS011;11470;20.968;105.834;2022-09-01T13:58:14;16.90;;;12.23;;
22606;SDS011;11470;20.968;105.834;2022-09-01T14:03:20;14.48;;;11.55;;
22606;SDS011;11470;20.968;105.834;2022-09-01T14:08:28;16.83;;;12.38;;
22606;SDS011;11470;20.968;105.834;2022-09-01T14:13:34;15.65;;;11.20;;
22606;SDS011;11470;20.968;105.834;2022-09-01T14:18:41;14.23;;;11.68;;
22606;SDS011;11470;20.968;105.834;2022-09-01T14:23:46;16.85;;;11.50;;
22606;SDS011;11470;20.968;105.834;2022-09-01T14:28:52;13.95;;;10.43;;
22606;SDS011;11470;20.968;105.834;2022-09-01T14:33:58;12.88;;;10.35;;
22606;SDS011;11470;20.968;105.834;2022-09-01T14:39:04;16.13;;;10.77;;
22606;SDS011;11470;20.968;105.834;2022-09-01T14:44:10;16.98;;;10.43;;
22606;SDS011;11470;20.968;105.834;2022-09-01T14:49:16;13.25;;;10.45;;
22606;SDS011;11470;20.968;105.834;2022-09-01T14:54:24;12.90;;;9.50;;
22606;SDS011;11470;20.968;105.834;2022-09-01T14:59:30;12.30;;;10.05;;
22606;SDS011;11470;20.968;105.834;2022-09-01T15:04:36;16.40;;;11.63;;
22606;SDS011;11470;20.968;105.834;2022-09-01T15:09:42;14.18;;;10.40;;
22606;SDS011;11470;20.968;105.834;2022-09-01T15:14:47;12.85;;;10.77;;
22606;SDS011;11470;20.968;105.834;2022-09-01T15:19:53;16.73;;;10.88;;
22606;SDS011;11470;20.968;105.834;2022-09-01T15:25:19;14.57;;;10.20;;
22606;SDS011;11470;20.968;105.834;2022-09-01T15:30:25;13.75;;;10.73;;
22606;SDS011;11470;20.968;105.834;2022-09-01T15:35:34;10.45;;;9.30;;
22606;SDS011;11470;20.968;105.834;2022-09-01T15:40:40;15.07;;;9.43;;
22606;SDS011;11470;20.968;105.834;2022-09-01T15:45:51;13.85;;;10.20;;
22606;SDS011;11470;20.968;105.834;2022-09-01T15:51:32;11.57;;;9.32;;
22606;SDS011;11470;20.968;105.834;2022-09-01T15:56:28;13.95;;;9.20;;
22606;SDS011;11470;20.968;105.834;2022-09-01T16:01:36;11.50;;;7.80;;
22606;SDS011;11470;20.968;105.834;2022-09-01T16:06:43;15.07;;;10.55;;
22606;SDS011;11470;20.968;105.834;2022-09-01T16:11:51;13.55;;;10.40;;
22606;SDS011;11470;20.968;105.834;2022-09-01T16:17:08;14.95;;;10.77;;
22606;SDS011;11470;20.968;105.834;2022-09-01T16:22:36;12.50;;;9.82;;
22606;SDS011;11470;20.968;105.834;2022-09-01T16:27:50;14.52;;;10.77;;
22606;SDS011;11470;20.968;105.834;2022-09-01T16:33:01;12.13;;;10.07;;
22606;SDS011;11470;20.968;105.834;2022-09-01T16:38:11;16.33;;;11.73;;
22606;SDS011;11470;20.968;105.834;2022-09-01T16:43:30;14.27;;;9.85;;
22606;SDS011;11470;20.968;105.834;2022-09-01T16:54:31;13.93;;;9.65;;
22606;SDS011;11470;20.968;105.834;2022-09-01T16:59:55;15.13;;;11.20;;
22606;SDS011;11470;20.968;105.834;2022-09-01T17:10:37;22.23;;;12.07;;
22606;SDS011;11470;20.968;105.834;2022-09-01T17:15:54;23.13;;;13.02;;
22606;SDS011;11470;20.968;105.834;2022-09-01T17:21:18;32.28;;;14.98;;
22606;SDS011;11470;20.968;105.834;2022-09-01T17:26:28;18.77;;;12.23;;
22606;SDS011;11470;20.968;105.834;2022-09-01T17:37:22;19.40;;;10.02;;
22606;SDS011;11470;20.968;105.834;2022-09-01T17:53:31;16.30;;;10.85;;
22606;SDS011;11470;20.968;105.834;2022-09-01T18:09:19;17.52;;;11.00;;
22606;SDS011;11470;20.968;105.834;2022-09-01T18:19:43;18.90;;;11.43;;
22606;SDS011;11470;20.968;105.834;2022-09-01T18:24:59;18.85;;;12.43;;
22606;SDS011;11470;20.968;105.834;2022-09-01T18:30:15;24.75;;;15.38;;
22606;SDS011;11470;20.968;105.834;2022-09-01T18:35:45;18.05;;;10.82;;
22606;SDS011;11470;20.968;105.834;2022-09-01T18:46:37;23.50;;;16.05;;
22606;SDS011;11470;20.968;105.834;2022-09-01T18:52:02;23.83;;;15.45;;
22606;SDS011;11470;20.968;105.834;2022-09-01T18:57:36;16.88;;;11.77;;
22606;SDS011;11470;20.968;105.834;2022-09-01T19:18:49;29.95;;;21.58;;
22606;SDS011;11470;20.968;105.834;2022-09-01T19:24:22;26.97;;;17.10;;
22606;SDS011;11470;20.968;105.834;2022-09-01T19:29:56;27.02;;;19.83;;
22606;SDS011;11470;20.968;105.834;2022-09-01T19:35:07;28.30;;;18.55;;
22606;SDS011;11470;20.968;105.834;2022-09-01T19:40:18;30.88;;;20.85;;
22606;SDS011;11470;20.968;105.834;2022-09-01T19:45:42;32.38;;;20.92;;
22606;SDS011;11470;20.968;105.834;2022-09-01T19:51:24;20.33;;;12.35;;
22606;SDS011;11470;20.968;105.834;2022-09-01T20:01:47;26.70;;;19.13;;
22606;SDS011;11470;20.968;105.834;2022-09-01T20:07:05;24.15;;;17.25;;
22606;SDS011;11470;20.968;105.834;2022-09-01T20:17:53;33.67;;;22.77;;
22606;SDS011;11470;20.968;105.834;2022-09-01T20:23:20;29.25;;;20.15;;
22606;SDS011;11470;20.968;105.834;2022-09-01T20:28:31;27.92;;;21.02;;
22606;SDS011;11470;20.968;105.834;2022-09-01T20:34:14;28.83;;;19.50;;
22606;SDS011;11470;20.968;105.834;2022-09-01T20:39:37;26.65;;;17.35;;
22606;SDS011;11470;20.968;105.834;2022-09-01T20:50:25;25.02;;;17.67;;
22606;SDS011;11470;20.968;105.834;2022-09-01T20:55:53;37.90;;;24.92;;
22606;SDS011;11470;20.968;105.834;2022-09-01T21:17:19;29.95;;;21.08;;
22606;SDS011;11470;20.968;105.834;2022-09-01T21:22:27;27.20;;;18.85;;
22606;SDS011;11470;20.968;105.834;2022-09-01T21:27:35;24.77;;;18.98;;
22606;SDS011;11470;20.968;105.834;2022-09-01T21:32:46;29.17;;;21.58;;
22606;SDS011;11470;20.968;105.834;2022-09-01T21:43:01;27.88;;;19.65;;
22606;SDS011;11470;20.968;105.834;2022-09-01T21:48:11;32.50;;;21.67;;
22606;SDS011;11470;20.968;105.834;2022-09-01T21:53:16;27.58;;;19.50;;
22606;SDS011;11470;20.968;105.834;2022-09-01T21:58:23;29.83;;;21.35;;
22606;SDS011;11470;20.968;105.834;2022-09-01T22:03:28;22.92;;;15.13;;
22606;SDS011;11470;20.968;105.834;2022-09-01T22:08:34;24.55;;;15.85;;
22606;SDS011;11470;20.968;105.834;2022-09-01T22:13:40;22.77;;;12.35;;
22606;SDS011;11470;20.968;105.834;2022-09-01T22:18:46;21.80;;;14.02;;
22606;SDS011;11470;20.968;105.834;2022-09-01T22:23:52;19.55;;;10.88;;
22606;SDS011;11470;20.968;105.834;2022-09-01T22:28:59;29.77;;;19.77;;
22606;SDS011;11470;20.968;105.834;2022-09-01T22:34:06;20.30;;;11.70;;
22606;SDS011;11470;20.968;105.834;2022-09-01T22:39:12;26.55;;;17.33;;
22606;SDS011;11470;20.968;105.834;2022-09-01T22:44:18;23.45;;;18.05;;
22606;SDS011;11470;20.968;105.834;2022-09-01T22:49:24;24.98;;;18.13;;
22606;SDS011;11470;20.968;105.834;2022-09-01T22:59:36;12.87;;;9.73;;
22606;SDS011;11470;20.968;105.834;2022-09-01T23:04:45;24.35;;;15.70;;
22606;SDS011;11470;20.968;105.834;2022-09-01T23:09:51;34.28;;;20.90;;
22606;SDS011;11470;20.968;105.834;2022-09-01T23:14:56;27.50;;;19.30;;
22606;SDS011;11470;20.968;105.834;2022-09-01T23:25:13;23.55;;;14.93;;
22606;SDS011;11470;20.968;105.834;2022-09-01T23:30:20;18.77;;;9.95;;
22606;SDS011;11470;20.968;105.834;2022-09-01T23:35:25;31.30;;;20.55;;
22606;SDS011;11470;20.968;105.834;2022-09-01T23:40:31;29.10;;;19.77;;
22606;SDS011;11470;20.968;105.834;2022-09-01T23:45:38;32.05;;;20.55;;
22606;SDS011;11470;20.968;105.834;2022-09-01T23:50:52;31.85;;;21.17;;
22606;SDS011;11470;20.968;105.834;2022-09-01T23:56:03;33.42;;;21.27;;
